createdAt,value
2018-11-03T00:00:00.497Z,9.43
2018-11-03T00:02:28.683Z,9.13
2018-11-03T00:04:56.816Z,8.93
2018-11-03T00:07:24.915Z,9.23
2018-11-03T00:09:53.011Z,9.00
2018-11-03T00:12:21.159Z,8.37
2018-11-03T00:14:49.266Z,7.80
2018-11-03T00:17:17.407Z,7.37
2018-11-03T00:19:45.504Z,7.97
2018-11-03T00:22:13.642Z,8.23
2018-11-03T00:24:41.747Z,8.30
2018-11-03T00:27:09.840Z,8.33
2018-11-03T00:29:37.967Z,8.83
2018-11-03T00:32:06.160Z,8.37
2018-11-03T00:34:34.309Z,8.20
2018-11-03T00:37:02.413Z,8.23
2018-11-03T00:39:30.491Z,8.00
2018-11-03T00:41:58.584Z,7.90
2018-11-03T00:44:26.705Z,7.73
2018-11-03T00:46:54.804Z,8.57
2018-11-03T00:49:22.901Z,8.53
2018-11-03T00:51:51.056Z,8.90
2018-11-03T00:54:19.140Z,8.57
2018-11-03T00:56:47.242Z,8.73
2018-11-03T00:59:15.501Z,8.80
2018-11-03T01:01:43.703Z,9.20
2018-11-03T01:04:11.807Z,8.70
2018-11-03T01:06:39.969Z,8.63
2018-11-03T01:09:08.551Z,9.57
2018-11-03T01:11:36.735Z,9.40
2018-11-03T01:14:04.838Z,9.50
2018-11-03T01:16:32.958Z,10.47
2018-11-03T01:19:01.126Z,10.77
2018-11-03T01:21:29.210Z,11.30
2018-11-03T01:23:57.365Z,9.73
2018-11-03T01:26:25.499Z,10.10
2018-11-03T01:28:53.593Z,11.03
2018-11-03T01:31:21.715Z,11.63
2018-11-03T01:33:49.876Z,10.90
2018-11-03T01:36:18.068Z,12.00
2018-11-03T01:38:46.266Z,10.87
2018-11-03T01:41:14.359Z,11.10
2018-11-03T01:43:42.474Z,12.07
2018-11-03T01:46:10.764Z,11.87
2018-11-03T01:48:38.863Z,11.53
2018-11-03T01:51:07.004Z,11.87
2018-11-03T01:53:35.131Z,12.17
2018-11-03T01:56:03.257Z,12.03
2018-11-03T01:58:31.430Z,11.87
2018-11-03T02:00:59.645Z,11.47
2018-11-03T02:03:27.767Z,12.60
2018-11-03T02:05:55.858Z,14.13
2018-11-03T02:08:24.024Z,15.00
2018-11-03T02:10:52.226Z,14.00
2018-11-03T02:13:20.369Z,15.30
2018-11-03T02:15:48.474Z,13.47
2018-11-03T02:18:17.491Z,14.77
2018-11-03T02:20:45.599Z,13.63
2018-11-03T02:23:13.740Z,14.20
2018-11-03T02:25:41.859Z,13.13
2018-11-03T02:28:09.961Z,13.13
2018-11-03T02:30:38.109Z,13.53
2018-11-03T02:33:06.303Z,13.43
2018-11-03T02:35:34.446Z,12.97
2018-11-03T02:38:02.563Z,12.63
2018-11-03T02:40:30.690Z,12.57
2018-11-03T02:42:58.920Z,13.43
2018-11-03T02:45:27.054Z,12.70
2018-11-03T02:47:55.145Z,14.30
2018-11-03T02:50:23.319Z,13.40
2018-11-03T02:52:51.462Z,13.77
2018-11-03T02:55:19.560Z,12.93
2018-11-03T02:57:47.720Z,12.50
2018-11-03T03:00:15.907Z,12.47
2018-11-03T03:02:44.056Z,13.43
2018-11-03T03:05:12.159Z,13.30
2018-11-03T03:07:40.605Z,14.20
2018-11-03T03:10:09.919Z,13.00
2018-11-03T03:12:38.303Z,13.43
2018-11-03T03:15:07.220Z,13.50
2018-11-03T03:17:35.324Z,13.87
2018-11-03T03:20:03.666Z,13.70
2018-11-03T03:22:31.826Z,13.30
2018-11-03T03:24:59.944Z,13.70
2018-11-03T03:27:28.046Z,14.90
2018-11-03T03:29:56.200Z,14.33
2018-11-03T03:32:24.319Z,14.30
2018-11-03T03:34:52.479Z,13.73
2018-11-03T03:37:20.656Z,13.60
2018-11-03T03:39:48.774Z,14.83
2018-11-03T03:42:17.016Z,14.70
2018-11-03T03:44:45.108Z,13.90
2018-11-03T03:47:13.202Z,15.33
2018-11-03T03:49:41.328Z,14.60
2018-11-03T03:52:09.490Z,14.70
2018-11-03T03:54:37.609Z,14.90
2018-11-03T03:57:05.716Z,15.10
2018-11-03T03:59:33.909Z,14.97
2018-11-03T04:02:02.017Z,16.00
2018-11-03T04:04:30.298Z,14.80
2018-11-03T04:06:58.526Z,16.60
2018-11-03T04:09:26.627Z,15.20
2018-11-03T04:11:54.736Z,15.73
2018-11-03T04:14:22.848Z,14.90
2018-11-03T04:16:51.206Z,15.10
2018-11-03T04:19:19.327Z,15.13
2018-11-03T04:21:47.426Z,15.90
2018-11-03T04:24:15.531Z,18.53
2018-11-03T04:26:43.617Z,18.10
2018-11-03T04:29:11.789Z,18.80
2018-11-03T04:31:39.908Z,18.67
2018-11-03T04:34:08.065Z,18.07
2018-11-03T04:36:36.213Z,17.47
2018-11-03T04:39:05.044Z,16.23
2018-11-03T04:41:33.179Z,16.73
2018-11-03T04:44:01.290Z,17.37
2018-11-03T04:46:29.527Z,19.17
2018-11-03T04:49:03.630Z,19.40
2018-11-03T04:51:33.246Z,18.30
2018-11-03T04:54:01.359Z,18.03
2018-11-03T04:56:29.526Z,17.67
2018-11-03T04:58:57.871Z,19.70
2018-11-03T05:01:26.143Z,19.17
2018-11-03T05:03:54.230Z,20.10
2018-11-03T05:06:22.351Z,18.70
2018-11-03T05:08:50.462Z,19.73
2018-11-03T05:11:18.572Z,20.17
2018-11-03T05:13:46.659Z,20.43
2018-11-03T05:16:14.770Z,22.00
2018-11-03T05:18:42.853Z,22.37
2018-11-03T05:21:11.170Z,21.07
2018-11-03T05:23:39.207Z,20.70
2018-11-03T05:26:07.380Z,21.47
2018-11-03T05:28:35.543Z,24.70
2018-11-03T05:31:03.701Z,23.83
2018-11-03T05:33:31.802Z,23.00
2018-11-03T05:36:00.906Z,21.83
2018-11-03T05:38:29.098Z,22.93
2018-11-03T05:40:57.182Z,22.47
2018-11-03T05:43:25.430Z,22.50
2018-11-03T05:45:53.704Z,22.73
2018-11-03T05:48:21.876Z,21.50
2018-11-03T05:50:49.973Z,21.77
2018-11-03T05:53:18.099Z,23.47
2018-11-03T05:55:46.199Z,25.03
2018-11-03T05:58:14.351Z,25.37
2018-11-03T06:00:42.442Z,27.60
2018-11-03T06:03:10.545Z,27.43
2018-11-03T06:05:38.699Z,26.97
2018-11-03T06:08:06.789Z,27.13
2018-11-03T06:10:34.960Z,25.67
2018-11-03T06:13:03.080Z,24.73
2018-11-03T06:15:31.292Z,25.70
2018-11-03T06:17:59.306Z,24.83
2018-11-03T06:20:27.437Z,24.97
2018-11-03T06:22:55.604Z,24.53
2018-11-03T06:25:23.679Z,26.20
2018-11-03T06:27:51.824Z,26.33
2018-11-03T06:30:19.931Z,27.63
2018-11-03T06:32:48.076Z,25.87
2018-11-03T06:35:16.229Z,26.60
2018-11-03T06:37:44.323Z,26.27
2018-11-03T06:40:12.417Z,26.73
2018-11-03T06:42:40.567Z,26.60
2018-11-03T06:45:09.250Z,24.87
2018-11-03T06:47:37.571Z,25.33
2018-11-03T06:50:06.385Z,26.93
2018-11-03T06:52:34.563Z,24.63
2018-11-03T06:55:02.660Z,26.57
2018-11-03T06:57:30.802Z,26.37
2018-11-03T06:59:58.975Z,25.93
2018-11-03T07:02:27.162Z,27.43
2018-11-03T07:04:55.441Z,24.97
2018-11-03T07:07:23.425Z,25.13
2018-11-03T07:09:51.563Z,24.73
2018-11-03T07:12:19.833Z,24.60
2018-11-03T07:14:47.830Z,23.53
2018-11-03T07:17:16.176Z,23.43
2018-11-03T07:19:44.330Z,24.87
2018-11-03T07:22:12.443Z,25.07
2018-11-03T07:24:40.591Z,24.47
2018-11-03T07:27:08.770Z,23.80
2018-11-03T07:29:36.933Z,24.40
2018-11-03T07:32:05.884Z,24.90
2018-11-03T07:34:34.007Z,24.70
2018-11-03T07:37:02.528Z,24.10
2018-11-03T07:39:30.626Z,25.63
2018-11-03T07:41:58.743Z,26.93
2018-11-03T07:44:26.907Z,27.27
2018-11-03T07:46:55.122Z,27.37
2018-11-03T07:49:23.343Z,27.67
2018-11-03T07:51:51.544Z,28.47
2018-11-03T07:54:19.752Z,29.33
2018-11-03T07:56:47.839Z,29.23
2018-11-03T07:59:16.026Z,30.83
2018-11-03T08:01:44.302Z,31.17
2018-11-03T08:04:12.419Z,30.97
2018-11-03T08:06:40.539Z,32.10
2018-11-03T08:09:09.466Z,30.57
2018-11-03T08:11:37.589Z,31.20
2018-11-03T08:14:05.860Z,31.73
2018-11-03T08:16:34.035Z,30.70
2018-11-03T08:19:02.311Z,29.77
2018-11-03T08:21:30.414Z,28.93
2018-11-03T08:23:58.980Z,28.73
2018-11-03T08:26:27.335Z,28.53
2018-11-03T08:28:55.507Z,29.03
2018-11-03T08:31:23.623Z,25.90
2018-11-03T08:33:51.803Z,27.20
2018-11-03T08:36:20.321Z,25.30
2018-11-03T08:38:48.538Z,26.10
2018-11-03T08:41:16.722Z,23.27
2018-11-03T08:43:44.875Z,22.87
2018-11-03T08:46:13.045Z,24.50
2018-11-03T08:48:41.340Z,25.57
2018-11-03T08:51:09.480Z,24.63
2018-11-03T08:53:37.639Z,24.03
2018-11-03T08:56:05.835Z,22.60
2018-11-03T08:58:33.955Z,20.77
2018-11-03T09:01:02.089Z,20.07
2018-11-03T09:03:30.205Z,20.63
2018-11-03T09:05:58.318Z,19.97
2018-11-03T09:08:26.438Z,20.00
2018-11-03T09:10:54.575Z,19.27
2018-11-03T09:13:22.743Z,20.23
2018-11-03T09:15:50.859Z,20.07
2018-11-03T09:18:18.951Z,20.53
2018-11-03T09:20:47.109Z,21.87
2018-11-03T09:23:15.230Z,21.83
2018-11-03T09:25:43.346Z,20.63
2018-11-03T09:28:11.552Z,19.97
2018-11-03T09:30:39.801Z,20.83
2018-11-03T09:33:07.955Z,21.57
2018-11-03T09:35:36.094Z,22.33
2018-11-03T09:38:04.203Z,21.50
2018-11-03T09:40:32.352Z,19.07
2018-11-03T09:43:00.570Z,18.33
2018-11-03T09:45:28.744Z,19.03
2018-11-03T09:47:56.898Z,20.23
2018-11-03T09:50:25.020Z,17.37
2018-11-03T09:52:53.132Z,18.10
2018-11-03T09:55:21.342Z,18.33
2018-11-03T09:57:49.580Z,19.57
2018-11-03T10:00:19.229Z,18.03
2018-11-03T10:02:47.376Z,16.13
2018-11-03T10:05:15.964Z,14.20
2018-11-03T10:07:44.177Z,14.97
2018-11-03T10:10:15.605Z,14.03
2018-11-03T10:12:44.358Z,14.40
2018-11-03T10:15:13.887Z,12.80
2018-11-03T10:17:42.552Z,11.67
2018-11-03T10:20:10.667Z,11.37
2018-11-03T10:22:38.884Z,10.70
2018-11-03T10:25:08.024Z,10.70
2018-11-03T10:27:36.189Z,10.40
2018-11-03T10:30:04.308Z,11.37
2018-11-03T10:32:32.411Z,11.23
2018-11-03T10:35:00.532Z,10.37
2018-11-03T10:37:28.669Z,10.43
2018-11-03T10:42:41.833Z,11.07
2018-11-03T10:45:11.420Z,10.30
2018-11-03T10:47:39.930Z,11.40
2018-11-03T10:52:52.788Z,9.73
2018-11-03T10:55:20.908Z,9.10
2018-11-03T10:57:49.067Z,8.30
2018-11-03T11:00:23.368Z,9.20
2018-11-03T11:02:57.290Z,7.53
2018-11-03T11:05:30.884Z,7.23
2018-11-03T11:08:04.502Z,7.47
2018-11-03T11:10:38.111Z,6.03
2018-11-03T11:13:11.642Z,6.37
2018-11-03T11:15:39.941Z,6.50
2018-11-03T11:18:07.972Z,6.80
2018-11-03T11:20:36.166Z,6.60
2018-11-03T11:23:04.547Z,6.70
2018-11-03T11:25:32.913Z,6.00
2018-11-03T11:31:08.502Z,6.33
2018-11-03T11:33:36.638Z,6.10
2018-11-03T11:36:05.039Z,5.67
2018-11-03T11:38:33.190Z,5.33
2018-11-03T11:41:01.366Z,5.87
2018-11-03T11:43:29.571Z,5.27
2018-11-03T11:45:57.718Z,5.03
2018-11-03T11:48:26.100Z,5.73
2018-11-03T11:50:54.206Z,5.00
2018-11-03T11:53:22.336Z,5.10
2018-11-03T11:55:50.495Z,5.57
2018-11-03T11:58:18.728Z,5.30
2018-11-03T12:00:47.037Z,5.50
2018-11-03T12:03:15.027Z,5.13
2018-11-03T12:05:43.253Z,5.70
2018-11-03T12:08:11.357Z,5.27
2018-11-03T12:10:39.551Z,5.37
2018-11-03T12:13:07.724Z,6.73
2018-11-03T12:15:35.901Z,6.67
2018-11-03T12:18:04.130Z,6.17
2018-11-03T12:20:32.336Z,5.80
2018-11-03T12:23:00.480Z,6.13
2018-11-03T12:25:28.658Z,5.63
2018-11-03T12:27:56.985Z,5.50
2018-11-03T12:30:25.141Z,6.00
2018-11-03T12:32:53.275Z,6.30
2018-11-03T12:35:21.445Z,6.10
2018-11-03T12:37:49.683Z,6.00
2018-11-03T12:40:17.809Z,6.07
2018-11-03T12:42:45.927Z,5.87
2018-11-03T12:45:14.160Z,6.33
2018-11-03T12:47:42.451Z,6.30
2018-11-03T12:50:12.503Z,6.73
2018-11-03T12:52:40.630Z,7.40
2018-11-03T12:55:09.133Z,6.47
2018-11-03T12:57:37.500Z,7.10
2018-11-03T13:00:06.596Z,7.33
2018-11-03T13:02:34.712Z,7.13
2018-11-03T13:05:02.881Z,7.30
2018-11-03T13:07:30.912Z,7.70
2018-11-03T13:09:59.076Z,7.63
2018-11-03T13:12:27.226Z,7.77
2018-11-03T13:14:55.349Z,7.23
2018-11-03T13:17:23.472Z,7.47
2018-11-03T13:19:51.678Z,7.80
2018-11-03T13:22:19.906Z,7.97
2018-11-03T13:24:48.093Z,7.80
2018-11-03T13:27:16.181Z,7.60
2018-11-03T13:29:44.332Z,7.07
2018-11-03T13:32:12.503Z,6.97
2018-11-03T13:34:40.608Z,7.17
2018-11-03T13:37:08.768Z,7.67
2018-11-03T13:39:37.041Z,7.20
2018-11-03T13:42:05.562Z,8.03
2018-11-03T13:44:33.700Z,7.70
2018-11-03T13:47:02.553Z,7.50
2018-11-03T13:49:30.685Z,7.53
2018-11-03T13:51:58.933Z,8.27
2018-11-03T13:54:27.040Z,8.00
2018-11-03T13:56:55.192Z,8.30
2018-11-03T13:59:23.318Z,8.90
2018-11-03T14:01:51.557Z,9.47
2018-11-03T14:04:19.726Z,9.37
2018-11-03T14:06:47.905Z,11.07
2018-11-03T14:09:16.062Z,10.43
2018-11-03T14:11:44.340Z,9.87
2018-11-03T14:14:12.515Z,10.87
2018-11-03T14:16:40.755Z,10.00
2018-11-03T14:19:08.904Z,10.67
2018-11-03T14:21:37.227Z,11.20
2018-11-03T14:24:05.435Z,11.57
2018-11-03T14:26:33.707Z,12.57
2018-11-03T14:31:30.043Z,12.77
2018-11-03T14:33:58.192Z,12.80
2018-11-03T14:36:26.504Z,12.33
2018-11-03T14:38:54.624Z,13.57
2018-11-03T14:41:22.731Z,14.37
2018-11-03T14:43:50.878Z,14.23
2018-11-03T14:46:18.996Z,13.60
2018-11-03T14:48:47.137Z,13.97
2018-11-03T14:51:15.316Z,13.33
2018-11-03T14:53:43.469Z,14.37
2018-11-03T14:56:11.671Z,14.43
2018-11-03T14:58:39.836Z,14.37
2018-11-03T15:01:08.043Z,14.30
2018-11-03T15:03:36.195Z,14.60
2018-11-03T15:06:04.359Z,13.57
2018-11-03T15:08:32.932Z,15.63
2018-11-03T15:11:01.006Z,14.93
2018-11-03T15:13:29.119Z,14.53
2018-11-03T15:15:57.246Z,14.77
2018-11-03T15:18:25.411Z,16.00
2018-11-03T15:20:53.535Z,14.73
2018-11-03T15:23:21.675Z,14.63
2018-11-03T15:25:49.784Z,14.87
2018-11-03T15:28:17.947Z,14.80
2018-11-03T15:30:46.115Z,15.00
2018-11-03T15:33:14.300Z,15.83
2018-11-03T15:35:42.472Z,15.87
2018-11-03T15:38:10.556Z,15.07
2018-11-03T15:40:38.690Z,15.43
2018-11-03T15:43:06.848Z,15.73
2018-11-03T15:45:34.995Z,15.70
2018-11-03T15:48:03.097Z,18.10
2018-11-03T15:50:31.229Z,18.70
2018-11-03T15:52:59.368Z,17.30
2018-11-03T15:55:27.475Z,17.63
2018-11-03T15:57:55.587Z,15.53
2018-11-03T16:00:23.773Z,15.83
2018-11-03T16:02:51.921Z,15.63
2018-11-03T16:05:20.635Z,15.93
2018-11-03T16:07:48.806Z,16.23
2018-11-03T16:10:16.990Z,18.97
2018-11-03T16:12:45.308Z,17.80
2018-11-03T16:15:13.721Z,17.13
2018-11-03T16:17:42.413Z,16.33
2018-11-03T16:20:11.826Z,17.87
2018-11-03T16:22:40.079Z,17.13
2018-11-03T16:25:08.883Z,17.27
2018-11-03T16:27:37.255Z,17.93
2018-11-03T16:30:06.700Z,17.83
2018-11-03T16:32:35.032Z,19.27
2018-11-03T16:35:02.939Z,19.37
2018-11-03T16:37:31.097Z,18.40
2018-11-03T16:39:59.298Z,18.43
2018-11-03T16:42:27.428Z,18.77
2018-11-03T16:44:55.536Z,17.80
2018-11-03T16:47:23.879Z,17.37
2018-11-03T16:49:52.079Z,18.40
2018-11-03T16:52:20.233Z,18.60
2018-11-03T16:54:48.331Z,18.23
2018-11-03T16:57:16.429Z,18.90
2018-11-03T16:59:44.556Z,18.23
2018-11-03T17:02:13.030Z,19.33
2018-11-03T17:04:41.270Z,19.40
2018-11-03T17:07:09.405Z,20.17
2018-11-03T17:09:37.981Z,20.13
2018-11-03T17:12:06.157Z,20.57
2018-11-03T17:14:34.322Z,19.73
2018-11-03T17:17:02.422Z,20.13
2018-11-03T17:19:30.538Z,21.20
2018-11-03T17:21:58.634Z,21.17
2018-11-03T17:24:26.733Z,20.10
2018-11-03T17:26:54.844Z,20.67
2018-11-03T17:29:22.966Z,19.53
2018-11-03T17:31:51.161Z,20.50
2018-11-03T17:34:19.327Z,20.40
2018-11-03T17:36:47.465Z,22.00
2018-11-03T17:39:15.581Z,20.50
2018-11-03T17:41:43.673Z,20.33
2018-11-03T17:44:11.884Z,21.47
2018-11-03T17:46:39.907Z,21.00
2018-11-03T17:49:08.064Z,20.23
2018-11-03T17:51:36.212Z,19.67
2018-11-03T17:54:04.630Z,20.60
2018-11-03T17:56:32.766Z,20.57
2018-11-03T17:59:00.948Z,20.57
2018-11-03T18:01:29.205Z,21.93
2018-11-03T18:03:57.171Z,21.03
2018-11-03T18:06:25.357Z,21.50
2018-11-03T18:08:53.542Z,20.57
2018-11-03T18:11:21.715Z,21.03
2018-11-03T18:13:50.175Z,20.60
2018-11-03T18:16:18.497Z,21.50
2018-11-03T18:18:46.643Z,21.17
2018-11-03T18:21:14.791Z,22.00
2018-11-03T18:23:42.897Z,21.40
2018-11-03T18:26:11.395Z,21.47
2018-11-03T18:28:39.526Z,20.57
2018-11-03T18:31:07.659Z,21.60
2018-11-03T18:33:36.017Z,21.53
2018-11-03T18:36:04.203Z,21.13
2018-11-03T18:38:32.349Z,20.60
2018-11-03T18:41:00.447Z,19.67
2018-11-03T18:43:28.755Z,21.27
2018-11-03T18:45:56.869Z,21.43
2018-11-03T18:48:25.055Z,19.93
2018-11-03T18:50:53.147Z,19.93
2018-11-03T18:53:21.348Z,21.03
2018-11-03T18:55:49.476Z,20.90
2018-11-03T18:58:17.634Z,20.13
2018-11-03T19:00:45.802Z,19.30
2018-11-03T19:03:13.917Z,20.27
2018-11-03T19:05:42.054Z,22.47
2018-11-03T19:08:10.207Z,21.43
2018-11-03T19:10:38.336Z,21.63
2018-11-03T19:13:06.591Z,22.07
2018-11-03T19:15:34.661Z,23.67
2018-11-03T19:18:02.812Z,22.37
2018-11-03T19:20:30.957Z,23.10
2018-11-03T19:22:59.096Z,23.37
2018-11-03T19:25:27.271Z,23.37
2018-11-03T19:27:55.408Z,21.70
2018-11-03T19:30:23.726Z,23.03
2018-11-03T19:32:51.778Z,21.93
2018-11-03T19:35:19.927Z,22.47
2018-11-03T19:37:48.148Z,22.93
2018-11-03T19:40:16.580Z,24.10
2018-11-03T19:42:44.727Z,22.47
2018-11-03T19:45:13.280Z,21.87
2018-11-03T19:47:41.444Z,22.23
2018-11-03T19:50:10.103Z,21.73
2018-11-03T19:52:38.278Z,21.80
2018-11-03T19:55:06.639Z,21.97
2018-11-03T19:57:35.068Z,22.30
2018-11-03T20:00:03.314Z,23.83
2018-11-03T20:02:32.172Z,24.13
2018-11-03T20:05:00.315Z,22.90
2018-11-03T20:07:28.448Z,22.80
2018-11-03T20:09:56.703Z,23.03
2018-11-03T20:12:24.789Z,23.47
2018-11-03T20:14:52.899Z,23.27
2018-11-03T20:17:21.047Z,23.50
2018-11-03T20:19:49.211Z,23.47
2018-11-03T20:22:17.488Z,25.17
2018-11-03T20:24:46.178Z,24.27
2018-11-03T20:27:14.467Z,23.80
2018-11-03T20:29:42.631Z,24.93
2018-11-03T20:32:10.738Z,25.07
2018-11-03T20:34:38.907Z,25.40
2018-11-03T20:37:07.576Z,25.50
2018-11-03T20:39:35.841Z,27.17
2018-11-03T20:42:04.311Z,25.87
2018-11-03T20:44:32.504Z,26.30
2018-11-03T20:47:00.680Z,27.27
2018-11-03T20:49:28.889Z,26.93
2018-11-03T20:51:57.017Z,25.37
2018-11-03T20:54:25.186Z,25.10
2018-11-03T20:56:53.297Z,23.83
2018-11-03T20:59:21.444Z,24.50
2018-11-03T21:01:49.722Z,25.60
2018-11-03T21:04:17.931Z,25.20
2018-11-03T21:06:46.072Z,23.53
2018-11-03T21:09:14.229Z,22.87
2018-11-03T21:11:42.395Z,22.67
2018-11-03T21:14:10.513Z,23.00
2018-11-03T21:16:38.688Z,22.90
2018-11-03T21:19:07.239Z,23.10
2018-11-03T21:21:35.420Z,23.00
2018-11-03T21:24:03.796Z,22.67
2018-11-03T21:26:31.750Z,22.97
2018-11-03T21:28:59.872Z,23.30
2018-11-03T21:31:28.007Z,22.87
2018-11-03T21:33:56.186Z,23.77
2018-11-03T21:36:24.344Z,24.00
2018-11-03T21:38:52.585Z,23.27
2018-11-03T21:41:20.698Z,22.30
2018-11-03T21:43:48.898Z,24.13
2018-11-03T21:46:17.027Z,23.17
2018-11-03T21:48:45.226Z,23.87
2018-11-03T21:51:13.328Z,25.53
2018-11-03T21:53:41.459Z,24.67
2018-11-03T21:56:09.711Z,24.73
2018-11-03T21:58:37.916Z,24.73
2018-11-03T22:01:06.083Z,25.73
2018-11-03T22:03:34.185Z,25.10
2018-11-03T22:06:02.460Z,25.10
2018-11-03T22:08:30.817Z,24.40
2018-11-03T22:10:58.992Z,24.37
2018-11-03T22:13:27.099Z,24.60
2018-11-03T22:15:55.268Z,24.57
2018-11-03T22:18:23.354Z,26.70
2018-11-03T22:20:51.487Z,25.87
2018-11-03T22:23:19.604Z,25.50
2018-11-03T22:25:47.747Z,26.17
2018-11-03T22:28:15.848Z,25.60
2018-11-03T22:30:43.957Z,24.47
2018-11-03T22:33:12.066Z,24.97
2018-11-03T22:35:40.227Z,25.30
2018-11-03T22:38:08.335Z,27.30
2018-11-03T22:40:36.501Z,28.07
2018-11-03T22:43:04.752Z,27.47
2018-11-03T22:45:33.117Z,26.97
2018-11-03T22:48:01.300Z,28.43
2018-11-03T22:50:29.403Z,28.43
2018-11-03T22:52:57.547Z,27.13
2018-11-03T22:55:25.656Z,28.63
2018-11-03T22:57:53.802Z,28.27
2018-11-03T23:00:21.963Z,28.30
2018-11-03T23:02:50.108Z,29.40
2018-11-03T23:05:18.220Z,29.23
2018-11-03T23:07:46.412Z,28.77
2018-11-03T23:10:14.492Z,29.07
2018-11-03T23:12:42.665Z,28.07
2018-11-03T23:15:11.199Z,28.90
2018-11-03T23:17:39.319Z,28.03
2018-11-03T23:20:08.687Z,28.97
2018-11-03T23:22:36.895Z,29.50
2018-11-03T23:25:05.367Z,29.60
2018-11-03T23:27:33.504Z,28.73
2018-11-03T23:30:01.742Z,28.50
2018-11-03T23:32:29.771Z,28.77
2018-11-03T23:34:57.860Z,29.10
2018-11-03T23:37:26.051Z,31.13
2018-11-03T23:39:54.194Z,29.83
2018-11-03T23:42:22.392Z,32.13
2018-11-03T23:44:50.539Z,31.07
2018-11-03T23:47:18.670Z,31.23
2018-11-03T23:49:46.812Z,31.57
2018-11-03T23:52:14.955Z,32.13
2018-11-03T23:54:43.047Z,31.60
2018-11-03T23:57:11.187Z,31.87
2018-11-03T23:59:39.338Z,31.60
